createdAt,value
2023-04-01T00:01:01.933Z,99113.78
2023-04-01T00:03:30.072Z,99113.78
2023-04-01T00:06:00.540Z,99115.13
2023-04-01T00:08:27.881Z,99117.19
2023-04-01T00:10:54.919Z,99108.38
2023-04-01T00:13:21.988Z,99113.31
2023-04-01T00:15:48.711Z,99116.19
2023-04-01T00:18:15.668Z,99105.28
2023-04-01T00:20:49.916Z,99111.00
2023-04-01T00:23:17.477Z,99108.13
2023-04-01T00:25:46.191Z,99108.69
2023-04-01T00:28:12.642Z,99110.78
2023-04-01T00:30:39.098Z,99109.97
2023-04-01T00:33:05.948Z,99104.25
2023-04-01T00:35:33.344Z,99101.16
2023-04-01T00:38:00.039Z,99102.47
2023-04-01T00:40:33.061Z,99108.19
2023-04-01T00:42:59.946Z,99096.28
2023-04-01T00:45:36.864Z,99106.41
2023-04-01T00:48:10.020Z,99107.94
2023-04-01T00:50:39.748Z,99101.22
2023-04-01T00:53:08.020Z,99107.72
2023-04-01T00:55:39.908Z,99102.00
2023-04-01T00:58:10.927Z,99106.16
2023-04-01T01:00:38.937Z,99108.78
2023-04-01T01:03:05.589Z,99111.66
2023-04-01T01:05:58.366Z,99104.91
2023-04-01T01:08:45.155Z,99103.91
2023-04-01T01:11:13.248Z,99111.16
2023-04-01T01:13:59.785Z,99111.69
2023-04-01T01:16:30.412Z,99105.22
2023-04-01T01:19:11.465Z,99107.84
2023-04-01T01:22:22.703Z,99100.56
2023-04-01T01:24:52.159Z,99107.03
2023-04-01T01:27:20.986Z,99106.28
2023-04-01T01:30:02.602Z,99107.56
2023-04-01T01:32:52.534Z,99110.19
2023-04-01T01:35:27.404Z,99108.66
2023-04-01T01:37:59.445Z,99101.94
2023-04-01T01:40:28.283Z,99101.16
2023-04-01T01:43:00.299Z,99108.41
2023-04-01T01:45:28.511Z,99108.94
2023-04-01T01:47:56.741Z,99109.75
2023-04-01T01:50:24.848Z,99114.13
2023-04-01T01:52:51.909Z,99109.47
2023-04-01T01:55:31.331Z,99111.03
2023-04-01T01:58:21.478Z,99107.94
2023-04-01T02:00:54.060Z,99102.75
2023-04-01T02:03:23.283Z,99112.34
2023-04-01T02:05:54.505Z,99108.22
2023-04-01T02:08:29.070Z,99117.81
2023-04-01T02:11:03.037Z,99113.41
2023-04-01T02:13:42.405Z,99124.84
2023-04-01T02:16:16.206Z,99111.63
2023-04-01T02:18:46.068Z,99118.13
2023-04-01T02:21:13.279Z,99118.88
2023-04-01T02:23:40.373Z,99107.75
2023-04-01T02:26:09.411Z,99112.41
2023-04-01T02:28:39.248Z,99124.59
2023-04-01T02:31:07.033Z,99125.94
2023-04-01T02:33:34.093Z,99122.28
2023-04-01T02:36:00.816Z,99123.06
2023-04-01T02:38:27.494Z,99128.00
2023-04-01T02:40:59.968Z,99131.38
2023-04-01T02:43:26.945Z,99129.84
2023-04-01T02:45:53.696Z,99129.06
2023-04-01T02:48:20.287Z,99123.88
2023-04-01T02:50:46.918Z,99129.06
2023-04-01T02:53:13.477Z,99134.00
2023-04-01T02:55:39.941Z,99137.63
2023-04-01T02:58:06.666Z,99136.88
2023-04-01T03:00:33.261Z,99136.88
2023-04-01T03:02:59.834Z,99142.59
2023-04-01T03:05:26.557Z,99136.63
2023-04-01T03:07:53.197Z,99143.13
2023-04-01T03:10:20.885Z,99143.88
2023-04-01T03:12:47.862Z,99140.78
2023-04-01T03:15:15.635Z,99142.34
2023-04-01T03:17:43.439Z,99142.34
2023-04-01T03:20:12.039Z,99146.50
2023-04-01T03:22:40.268Z,99137.94
2023-04-01T03:25:10.698Z,99146.50
2023-04-01T03:27:37.937Z,99140.53
2023-04-01T03:30:06.610Z,99143.38
2023-04-01T03:32:38.546Z,99150.41
2023-04-01T03:35:06.435Z,99141.59
2023-04-01T03:37:33.062Z,99147.53
2023-04-01T03:39:59.592Z,99143.41
2023-04-01T03:42:26.617Z,99153.25
2023-04-01T03:44:53.991Z,99152.47
2023-04-01T03:47:20.567Z,99151.69
2023-04-01T03:49:46.955Z,99156.63
2023-04-01T03:52:13.590Z,99152.78
2023-04-01T03:54:40.147Z,99153.00
2023-04-01T03:57:07.311Z,99158.72
2023-04-01T03:59:35.525Z,99153.53
2023-04-01T04:02:02.909Z,99159.78
2023-04-01T04:04:29.992Z,99158.50
2023-04-01T04:06:57.192Z,99160.03
2023-04-01T04:09:24.920Z,99164.22
2023-04-01T04:11:51.775Z,99162.66
2023-04-01T04:14:18.331Z,99163.41
2023-04-01T04:16:45.994Z,99169.94
2023-04-01T04:19:12.465Z,99174.09
2023-04-01T04:21:40.719Z,99175.66
2023-04-01T04:24:07.802Z,99181.88
2023-04-01T04:26:57.522Z,99178.22
2023-04-01T04:29:24.100Z,99186.81
2023-04-01T04:31:51.349Z,99186.56
2023-04-01T04:34:19.401Z,99188.13
2023-04-01T04:36:46.764Z,99185.28
2023-04-01T04:39:13.588Z,99189.44
2023-04-01T04:41:42.357Z,99192.28
2023-04-01T04:44:08.974Z,99193.84
2023-04-01T04:46:35.615Z,99194.13
2023-04-01T04:49:12.921Z,99202.94
2023-04-01T04:51:39.679Z,99200.34
2023-04-01T04:54:07.634Z,99199.06
2023-04-01T04:56:49.456Z,99205.00
2023-04-01T04:59:16.026Z,99209.19
2023-04-01T05:01:49.468Z,99201.97
2023-04-01T05:04:16.069Z,99213.34
2023-04-01T05:06:45.437Z,99207.41
2023-04-01T05:09:12.612Z,99213.88
2023-04-01T05:11:39.949Z,99212.34
2023-04-01T05:14:06.640Z,99217.25
2023-04-01T05:16:34.126Z,99222.97
2023-04-01T05:19:02.632Z,99221.44
2023-04-01T05:21:29.270Z,99219.34
2023-04-01T05:23:57.069Z,99225.31
2023-04-01T05:26:25.068Z,99230.00
2023-04-01T05:28:51.521Z,99235.47
2023-04-01T05:31:18.084Z,99234.41
2023-04-01T05:33:47.240Z,99233.63
2023-04-01T05:36:16.475Z,99239.34
2023-04-01T05:38:44.133Z,99237.03
2023-04-01T05:41:12.690Z,99238.59
2023-04-01T05:43:43.350Z,99242.22
2023-04-01T05:46:33.025Z,99235.47
2023-04-01T05:49:08.837Z,99254.94
2023-04-01T05:51:35.825Z,99244.31
2023-04-01T05:54:02.419Z,99245.34
2023-04-01T05:56:29.002Z,99253.41
2023-04-01T05:58:56.047Z,99250.03
2023-04-01T06:01:24.002Z,99244.31
2023-04-01T06:03:50.758Z,99255.72
2023-04-01T06:06:23.751Z,99255.47
2023-04-01T06:08:51.028Z,99253.13
2023-04-01T06:11:27.793Z,99265.31
2023-04-01T06:14:11.210Z,99267.66
2023-04-01T06:16:58.518Z,99260.38
2023-04-01T06:19:40.373Z,99267.66
2023-04-01T06:22:18.180Z,99274.66
2023-04-01T06:25:15.184Z,99270.50
2023-04-01T06:28:03.199Z,99278.84
2023-04-01T06:30:34.016Z,99288.69
2023-04-01T06:33:31.177Z,99280.63
2023-04-01T06:36:03.952Z,99283.75
2023-04-01T06:38:33.547Z,99290.22
2023-04-01T06:41:32.864Z,99294.41
2023-04-01T06:44:19.946Z,99299.59
2023-04-01T06:47:31.398Z,99296.72
2023-04-01T06:50:37.981Z,99306.59
2023-04-01T06:53:38.033Z,99303.97
2023-04-01T06:56:27.581Z,99309.97
2023-04-01T06:58:58.337Z,99318.53
2023-04-01T07:01:45.296Z,99315.16
2023-04-01T07:04:20.735Z,99327.34
2023-04-01T07:07:00.616Z,99325.03
2023-04-01T07:09:38.014Z,99334.38
2023-04-01T07:12:28.989Z,99334.91
2023-04-01T07:15:21.146Z,99340.63
2023-04-01T07:17:53.181Z,99333.88
2023-04-01T07:20:33.136Z,99340.63
2023-04-01T07:23:27.078Z,99349.72
2023-04-01T07:26:26.083Z,99355.44
2023-04-01T07:29:13.874Z,99363.00
2023-04-01T07:32:05.621Z,99359.59
2023-04-01T07:34:53.659Z,99364.00
2023-04-01T07:37:43.432Z,99362.19
2023-04-01T07:41:13.769Z,99381.72
2023-04-01T07:44:14.205Z,99378.84
2023-04-01T07:46:40.681Z,99391.06
2023-04-01T07:49:27.057Z,99392.91
2023-04-01T07:52:00.162Z,99400.94
2023-04-01T07:54:35.651Z,99404.31
2023-04-01T07:57:09.336Z,99397.56
2023-04-01T07:59:56.401Z,99412.09
2023-04-01T08:02:52.856Z,99410.56
2023-04-01T08:05:30.407Z,99417.56
2023-04-01T08:07:59.032Z,99431.09
2023-04-01T08:11:12.519Z,99429.81
2023-04-01T08:14:09.897Z,99442.00
2023-04-01T08:17:17.619Z,99430.31
2023-04-01T08:20:13.035Z,99441.75
2023-04-01T08:22:46.234Z,99441.75
2023-04-01T08:25:28.145Z,99454.47
2023-04-01T08:28:25.342Z,99459.94
2023-04-01T08:30:59.648Z,99457.59
2023-04-01T08:33:29.618Z,99461.50
2023-04-01T08:36:14.532Z,99459.16
2023-04-01T08:38:52.763Z,99464.09
2023-04-01T08:42:01.492Z,99469.56
2023-04-01T08:45:14.262Z,99466.69
2023-04-01T08:48:02.352Z,99465.66
2023-04-01T08:50:58.232Z,99483.56
2023-04-01T08:53:52.581Z,99484.34
2023-04-01T08:56:39.211Z,99495.00
2023-04-01T08:59:36.405Z,99488.53
2023-04-01T09:02:09.983Z,99494.25
2023-04-01T09:05:31.248Z,99498.66
2023-04-01T09:08:31.806Z,99510.84
2023-04-01T09:11:26.182Z,99506.16
2023-04-01T09:14:51.946Z,99516.81
2023-04-01T09:17:35.814Z,99517.59
2023-04-01T09:20:34.588Z,99510.06
2023-04-01T09:23:22.062Z,99522.03
2023-04-01T09:26:10.381Z,99528.28
2023-04-01T09:29:19.424Z,99527.97
2023-04-01T09:31:58.196Z,99523.59
2023-04-01T09:34:54.209Z,99526.44
2023-04-01T09:37:43.016Z,99536.06
2023-04-01T09:40:26.747Z,99544.63
2023-04-01T09:43:17.479Z,99549.81
2023-04-01T09:46:21.875Z,99552.91
2023-04-01T09:49:01.014Z,99562.25
2023-04-01T09:51:55.720Z,99553.69
2023-04-01T09:54:47.200Z,99559.94
2023-04-01T09:57:52.312Z,99570.03
2023-04-01T10:01:07.217Z,99571.09
2023-04-01T10:03:55.595Z,99573.41
2023-04-01T10:06:47.687Z,99582.53
2023-04-01T10:09:49.643Z,99592.38
2023-04-01T10:12:51.192Z,99580.41
2023-04-01T10:15:20.369Z,99598.09
2023-04-01T10:17:54.055Z,99598.09
2023-04-01T10:20:41.110Z,99598.59
2023-04-01T10:23:33.775Z,99601.44
2023-04-01T10:26:33.377Z,99604.81
2023-04-01T10:29:23.460Z,99610.53
2023-04-01T10:32:13.906Z,99604.81
2023-04-01T10:34:49.668Z,99603.25
2023-04-01T10:37:42.245Z,99613.91
2023-04-01T10:40:38.868Z,99623.25
2023-04-01T10:44:11.041Z,99617.78
2023-04-01T10:46:59.508Z,99625.03
2023-04-01T10:49:41.186Z,99629.97
2023-04-01T10:52:38.578Z,99631.28
2023-04-01T10:55:46.761Z,99625.59
2023-04-01T10:59:05.696Z,99636.19
2023-04-01T11:02:37.321Z,99658.28
2023-04-01T11:05:47.556Z,99643.75
2023-04-01T11:08:42.517Z,99642.16
2023-04-01T11:11:35.748Z,99662.44
2023-04-01T11:14:30.620Z,99643.19
2023-04-01T11:17:18.476Z,99656.97
2023-04-01T11:20:07.330Z,99672.53
2023-04-01T11:23:03.585Z,99674.88
2023-04-01T11:25:43.045Z,99682.13
2023-04-01T11:28:58.484Z,99680.59
2023-04-01T11:31:48.296Z,99688.88
2023-04-01T11:34:49.796Z,99691.47
2023-04-01T11:37:22.340Z,99690.44
2023-04-01T11:40:38.895Z,99695.38
2023-04-01T11:43:39.553Z,99695.59
2023-04-01T11:46:55.319Z,99701.31
2023-04-01T11:49:47.522Z,99703.16
2023-04-01T11:52:40.847Z,99719.00
2023-04-01T11:55:26.203Z,99721.34
2023-04-01T11:58:19.142Z,99715.06
2023-04-01T12:01:12.189Z,99732.50
2023-04-01T12:03:57.855Z,99736.63
2023-04-01T12:06:36.884Z,99734.03
2023-04-01T12:09:47.855Z,99738.72
2023-04-01T12:12:27.517Z,99751.16
2023-04-01T12:15:20.757Z,99752.19
2023-04-01T12:18:01.782Z,99754.28
2023-04-01T12:20:49.766Z,99759.44
2023-04-01T12:23:32.209Z,99759.72
2023-04-01T12:26:17.312Z,99768.28
2023-04-01T12:29:00.878Z,99770.06
2023-04-01T12:31:49.240Z,99783.31
2023-04-01T12:34:35.494Z,99780.97
2023-04-01T12:37:07.880Z,99781.22
2023-04-01T12:39:59.211Z,99780.16
2023-04-01T12:42:31.660Z,99803.50
2023-04-01T12:45:14.099Z,99802.47
2023-04-01T12:47:56.742Z,99789.72
2023-04-01T12:50:29.040Z,99812.31
2023-04-01T12:53:30.000Z,99806.09
2023-04-01T12:55:57.034Z,99813.34
2023-04-01T12:59:05.273Z,99818.78
2023-04-01T13:01:43.437Z,99827.34
2023-04-01T13:04:24.888Z,99821.63
2023-04-01T13:07:22.732Z,99831.97
2023-04-01T13:09:57.297Z,99831.22
2023-04-01T13:12:35.876Z,99843.91
2023-04-01T13:15:26.334Z,99848.56
2023-04-01T13:18:17.284Z,99852.19
2023-04-01T13:20:53.117Z,99856.06
2023-04-01T13:24:02.404Z,99861.00
2023-04-01T13:26:49.493Z,99857.88
2023-04-01T13:29:22.342Z,99860.72
2023-04-01T13:32:15.960Z,99879.13
2023-04-01T13:34:49.090Z,99871.34
2023-04-01T13:37:52.979Z,99878.84
2023-04-01T13:40:36.374Z,99886.63
2023-04-01T13:43:16.445Z,99870.25
2023-04-01T13:45:51.053Z,99896.47
2023-04-01T13:48:33.728Z,99880.88
2023-04-01T13:51:25.481Z,99902.91
2023-04-01T13:54:03.953Z,99899.50
2023-04-01T13:56:39.005Z,99907.06
2023-04-01T13:59:23.464Z,99902.63
2023-04-01T14:02:16.061Z,99914.50
2023-04-01T14:04:54.269Z,99919.72
2023-04-01T14:07:49.692Z,99921.50
2023-04-01T14:10:38.094Z,99932.63
2023-04-01T14:13:15.913Z,99920.66
2023-04-01T14:16:07.428Z,99938.06
2023-04-01T14:19:10.387Z,99943.97
2023-04-01T14:21:54.382Z,99943.19
2023-04-01T14:24:29.933Z,99956.19
2023-04-01T14:27:26.029Z,99958.72
2023-04-01T14:30:17.602Z,99959.72
2023-04-01T14:32:52.835Z,99967.28
2023-04-01T14:35:43.993Z,99967.00
2023-04-01T14:38:48.700Z,99980.19
2023-04-01T14:41:38.756Z,99988.47
2023-04-01T14:44:23.787Z,99982.00
2023-04-01T14:47:20.456Z,99979.53
2023-04-01T14:49:54.425Z,99992.53
2023-04-01T14:52:35.289Z,99992.25
2023-04-01T14:55:11.981Z,99996.88
2023-04-01T14:57:38.496Z,100000.50
2023-04-01T15:00:04.955Z,100004.94
2023-04-01T15:03:03.151Z,100005.91
2023-04-01T15:05:46.360Z,100011.63
2023-04-01T15:08:18.362Z,100017.06
2023-04-01T15:11:14.142Z,100016.78
2023-04-01T15:13:54.397Z,100026.59
2023-04-01T15:16:40.300Z,100034.56
2023-04-01T15:19:28.785Z,100044.41
2023-04-01T15:22:25.791Z,100038.44
2023-04-01T15:25:37.141Z,100048.75
2023-04-01T15:28:34.760Z,100050.53
2023-04-01T15:31:08.602Z,100058.03
2023-04-01T15:33:57.881Z,100067.63
2023-04-01T15:36:54.329Z,100061.09
2023-04-01T15:39:43.853Z,100076.34
2023-04-01T15:42:26.839Z,100079.47
2023-04-01T15:44:53.185Z,100082.81
2023-04-01T15:47:25.905Z,100089.00
2023-04-01T15:50:27.017Z,100088.41
2023-04-01T15:53:17.822Z,100089.72
2023-04-01T15:56:00.498Z,100094.59
2023-04-01T15:59:05.077Z,100111.91
2023-04-01T16:01:52.941Z,100119.09
2023-04-01T16:04:40.817Z,100124.50
2023-04-01T16:07:39.073Z,100122.75
2023-04-01T16:10:17.348Z,100127.84
2023-04-01T16:13:20.203Z,100134.81
2023-04-01T16:16:08.431Z,100140.22
2023-04-01T16:18:49.544Z,100145.16
2023-04-01T16:21:34.936Z,100143.56
2023-04-01T16:24:13.498Z,100147.91
2023-04-01T16:26:49.749Z,100154.19
2023-04-01T16:29:16.116Z,100153.41
2023-04-01T16:32:03.033Z,100160.88
2023-04-01T16:34:39.810Z,100168.34
2023-04-01T16:37:13.894Z,100179.44
2023-04-01T16:40:12.083Z,100182.78
2023-04-01T16:42:50.032Z,100189.78
2023-04-01T16:45:39.505Z,100196.75
2023-04-01T16:48:18.284Z,100206.25
2023-04-01T16:50:53.704Z,100202.63
2023-04-01T16:53:38.365Z,100213.72
2023-04-01T16:56:16.026Z,100221.19
2023-04-01T16:58:55.874Z,100213.91
2023-04-01T17:01:38.318Z,100229.63
2023-04-01T17:04:35.283Z,100226.97
2023-04-01T17:07:29.724Z,100241.97
2023-04-01T17:10:05.409Z,100255.16
2023-04-01T17:12:46.202Z,100252.78
2023-04-01T17:15:32.438Z,100270.84
2023-04-01T17:18:20.123Z,100273.09
2023-04-01T17:21:08.714Z,100281.34
2023-04-01T17:24:05.590Z,100286.75
2023-04-01T17:26:43.342Z,100290.84
2023-04-01T17:29:34.674Z,100304.31
2023-04-01T17:32:26.083Z,100307.34
2023-04-01T17:35:10.395Z,100309.88
2023-04-01T17:37:56.038Z,100323.63
2023-04-01T17:40:32.117Z,100327.13
2023-04-01T17:43:22.778Z,100337.75
2023-04-01T17:46:02.421Z,100330.47
2023-04-01T17:49:22.971Z,100344.59
2023-04-01T17:52:18.472Z,100359.31
2023-04-01T17:54:59.765Z,100358.19
2023-04-01T17:57:48.158Z,100384.78
2023-04-01T18:00:19.070Z,100367.41
2023-04-01T18:03:21.018Z,100368.53
2023-04-01T18:05:59.979Z,100380.41
2023-04-01T18:08:36.387Z,100386.41
2023-04-01T18:11:24.501Z,100395.41
2023-04-01T18:14:19.691Z,100391.00
2023-04-01T18:16:58.454Z,100405.41
2023-04-01T18:19:47.866Z,100416.47
2023-04-01T18:22:27.044Z,100426.75
2023-04-01T18:25:11.853Z,100432.63
2023-04-01T18:27:42.264Z,100436.25
2023-04-01T18:30:16.794Z,100448.09
2023-04-01T18:32:55.592Z,100464.88
2023-04-01T18:35:45.892Z,100449.22
2023-04-01T18:38:30.644Z,100463.63
2023-04-01T18:41:16.372Z,100477.38
2023-04-01T18:44:02.224Z,100474.22
2023-04-01T18:46:39.100Z,100478.31
2023-04-01T18:49:35.372Z,100485.75
2023-04-01T18:52:32.792Z,100482.59
2023-04-01T18:55:02.279Z,100498.09
2023-04-01T18:57:45.322Z,100507.25
2023-04-01T19:00:23.278Z,100504.41
2023-04-01T19:02:53.738Z,100519.09
2023-04-01T19:05:35.475Z,100533.97
2023-04-01T19:08:32.401Z,100538.41
2023-04-01T19:11:24.934Z,100527.19
2023-04-01T19:13:56.060Z,100534.91
2023-04-01T19:16:44.925Z,100547.88
2023-04-01T19:19:31.310Z,100550.88
2023-04-01T19:22:02.485Z,100546.44
2023-04-01T19:24:43.884Z,100555.94
2023-04-01T19:27:25.702Z,100568.59
2023-04-01T19:30:26.307Z,100578.03
2023-04-01T19:33:19.507Z,100579.75
2023-04-01T19:36:10.350Z,100585.59
2023-04-01T19:38:43.912Z,100578.78
2023-04-01T19:41:21.294Z,100578.47
2023-04-01T19:44:45.011Z,100581.47
2023-04-01T19:47:46.317Z,100594.09
2023-04-01T19:50:36.510Z,100610.84
2023-04-01T19:53:30.283Z,100600.88
2023-04-01T19:56:08.616Z,100613.34
2023-04-01T19:58:46.765Z,100625.69
2023-04-01T20:01:25.506Z,100628.53
2023-04-01T20:04:03.407Z,100632.31
2023-04-01T20:06:39.055Z,100634.50
2023-04-01T20:09:23.468Z,100641.75
2023-04-01T20:12:17.523Z,100655.00
2023-04-01T20:14:49.785Z,100659.09
2023-04-01T20:17:23.976Z,100664.16
2023-04-01T20:20:11.881Z,100669.38
2023-04-01T20:23:00.805Z,100693.50
2023-04-01T20:25:40.741Z,100687.00
2023-04-01T20:28:24.076Z,100694.44
2023-04-01T20:31:04.573Z,100708.31
2023-04-01T20:34:17.470Z,100706.88
2023-04-01T20:37:19.353Z,100711.28
2023-04-01T20:40:09.235Z,100721.53
2023-04-01T20:43:00.198Z,100721.19
2023-04-01T20:45:35.050Z,100720.88
2023-04-01T20:48:24.964Z,100725.75
2023-04-01T20:51:05.556Z,100730.31
2023-04-01T20:53:43.337Z,100747.03
2023-04-01T20:56:34.193Z,100742.28
2023-04-01T20:59:48.677Z,100739.72
2023-04-01T21:03:02.733Z,100753.94
2023-04-01T21:05:49.753Z,100753.94
2023-04-01T21:09:01.283Z,100754.50
2023-04-01T21:12:12.802Z,100760.31
2023-04-01T21:15:10.549Z,100777.03
2023-04-01T21:18:04.325Z,100778.09
2023-04-01T21:20:51.783Z,100774.25
2023-04-01T21:23:44.206Z,100776.63
2023-04-01T21:26:32.627Z,100789.69
2023-04-01T21:29:24.164Z,100778.59
2023-04-01T21:32:15.412Z,100793.59
2023-04-01T21:34:52.845Z,100807.13
2023-04-01T21:37:38.293Z,100791.09
2023-04-01T21:40:23.587Z,100809.88
2023-04-01T21:42:53.155Z,100810.78
2023-04-01T21:45:38.137Z,100810.91
2023-04-01T21:48:23.233Z,100815.44
2023-04-01T21:51:02.347Z,100819.88
2023-04-01T21:53:31.691Z,100827.25
2023-04-01T21:56:11.293Z,100821.03
2023-04-01T21:58:56.681Z,100836.81
2023-04-01T22:01:56.071Z,100843.38
2023-04-01T22:04:39.710Z,100863.69
2023-04-01T22:07:44.431Z,100857.91
2023-04-01T22:10:29.944Z,100862.94
2023-04-01T22:13:17.764Z,100867.00
2023-04-01T22:16:06.896Z,100864.75
2023-04-01T22:18:39.011Z,100872.00
2023-04-01T22:21:24.781Z,100858.94
2023-04-01T22:24:09.416Z,100888.78
2023-04-01T22:26:45.683Z,100885.16
2023-04-01T22:29:21.271Z,100893.34
2023-04-01T22:31:56.665Z,100898.66
2023-04-01T22:34:51.145Z,100904.91
2023-04-01T22:37:28.403Z,100898.88
2023-04-01T22:40:18.650Z,100901.25
2023-04-01T22:42:48.694Z,100925.31
2023-04-01T22:45:35.275Z,100917.00
2023-04-01T22:48:22.280Z,100922.34
2023-04-01T22:50:56.249Z,100919.94
2023-04-01T22:53:47.230Z,100928.22
2023-04-01T22:56:19.361Z,100923.09
2023-04-01T22:59:19.468Z,100934.44
2023-04-01T23:01:52.229Z,100941.03
2023-04-01T23:04:25.067Z,100942.25
2023-04-01T23:06:58.803Z,100944.75
2023-04-01T23:09:29.320Z,100956.88
2023-04-01T23:12:05.043Z,100950.88
2023-04-01T23:14:45.059Z,100956.16
2023-04-01T23:17:14.597Z,100953.00
2023-04-01T23:20:23.166Z,100961.59
2023-04-01T23:23:24.645Z,100972.59
2023-04-01T23:26:11.326Z,100972.34
2023-04-01T23:28:45.623Z,100981.63
2023-04-01T23:31:27.221Z,100978.91
2023-04-01T23:34:02.955Z,100978.66
2023-04-01T23:36:32.112Z,100993.16
2023-04-01T23:39:05.148Z,100990.00
2023-04-01T23:41:33.465Z,100998.13
2023-04-01T23:44:08.428Z,101001.50
2023-04-01T23:46:36.131Z,101006.38
2023-04-01T23:49:04.852Z,101000.78
2023-04-01T23:51:47.446Z,101019.38
2023-04-01T23:54:50.573Z,101018.66
2023-04-01T23:57:22.024Z,101017.06
